createdAt,value
2017-12-11T00:00:17.576Z,0.00
2017-12-11T00:02:10.769Z,0.00
2017-12-11T00:03:10.722Z,0.00
2017-12-11T00:05:03.868Z,0.00
2017-12-11T00:06:03.883Z,0.00
2017-12-11T00:07:57.044Z,0.00
2017-12-11T00:08:57.046Z,0.00
2017-12-11T00:11:11.201Z,0.00
2017-12-11T00:12:43.358Z,0.00
2017-12-11T00:13:43.362Z,0.00
2017-12-11T00:15:36.500Z,0.00
2017-12-11T00:16:36.523Z,0.00
2017-12-11T00:18:29.681Z,0.00
2017-12-11T00:19:29.682Z,0.00
2017-12-11T00:21:22.809Z,0.00
2017-12-11T00:22:22.819Z,0.00
2017-12-11T00:24:16.045Z,0.00
2017-12-11T00:25:16.026Z,0.00
2017-12-11T00:27:09.250Z,0.00
2017-12-11T00:28:09.161Z,0.00
2017-12-11T00:30:02.317Z,0.00
2017-12-11T00:31:02.322Z,0.00
2017-12-11T00:32:55.549Z,0.00
2017-12-11T00:33:55.483Z,0.00
2017-12-11T00:35:48.625Z,0.00
2017-12-11T00:36:48.645Z,0.00
2017-12-11T00:38:41.819Z,0.00
2017-12-11T00:39:41.805Z,0.00
2017-12-11T00:41:34.965Z,0.00
2017-12-11T00:42:34.973Z,0.00
2017-12-11T00:44:28.124Z,0.00
2017-12-11T00:45:28.127Z,0.00
2017-12-11T00:47:21.276Z,0.00
2017-12-11T00:48:21.282Z,0.00
2017-12-11T00:50:14.446Z,0.00
2017-12-11T00:51:14.442Z,0.00
2017-12-11T00:53:07.604Z,0.00
2017-12-11T00:54:07.608Z,0.00
2017-12-11T00:56:00.757Z,0.00
2017-12-11T00:57:00.773Z,0.00
2017-12-11T00:58:53.925Z,0.00
2017-12-11T00:59:53.924Z,0.00
2017-12-11T01:01:47.077Z,0.00
2017-12-11T01:02:47.094Z,0.00
2017-12-11T01:04:40.215Z,0.00
2017-12-11T01:05:40.222Z,0.00
2017-12-11T01:07:33.414Z,0.00
2017-12-11T01:08:33.411Z,0.00
2017-12-11T01:10:26.556Z,0.00
2017-12-11T01:11:26.568Z,0.00
2017-12-11T01:13:19.731Z,0.00
2017-12-11T01:14:19.724Z,0.00
2017-12-11T01:16:12.929Z,0.00
2017-12-11T01:17:12.942Z,0.00
2017-12-11T01:19:06.107Z,0.00
2017-12-11T01:20:06.114Z,0.00
2017-12-11T01:21:59.250Z,0.00
2017-12-11T01:22:59.267Z,0.00
2017-12-11T01:25:09.715Z,0.00
2017-12-11T01:26:09.724Z,0.00
2017-12-11T01:28:02.910Z,0.00
2017-12-11T01:29:02.911Z,0.00
2017-12-11T01:30:56.051Z,0.00
2017-12-11T01:31:56.060Z,0.00
2017-12-11T01:33:49.203Z,0.00
2017-12-11T01:34:49.204Z,0.00
2017-12-11T01:36:42.368Z,0.00
2017-12-11T01:37:42.380Z,0.00
2017-12-11T01:39:35.536Z,0.00
2017-12-11T01:40:35.533Z,0.00
2017-12-11T01:42:28.694Z,0.00
2017-12-11T01:43:28.692Z,0.00
2017-12-11T01:45:21.860Z,0.00
2017-12-11T01:46:21.847Z,0.00
2017-12-11T01:48:15.023Z,0.00
2017-12-11T01:49:15.008Z,0.00
2017-12-11T01:51:08.162Z,0.00
2017-12-11T01:52:08.179Z,0.00
2017-12-11T01:54:01.340Z,0.00
2017-12-11T01:55:01.350Z,0.00
2017-12-11T01:56:54.466Z,0.00
2017-12-11T01:57:54.489Z,0.00
2017-12-11T01:59:47.658Z,0.00
2017-12-11T02:00:47.645Z,0.00
2017-12-11T02:02:40.798Z,0.00
2017-12-11T02:03:40.811Z,0.00
2017-12-11T02:05:33.960Z,0.00
2017-12-11T02:06:33.967Z,0.00
2017-12-11T02:08:27.125Z,0.00
2017-12-11T02:09:27.127Z,0.00
2017-12-11T02:11:34.571Z,0.00
2017-12-11T02:12:34.592Z,0.00
2017-12-11T02:14:27.747Z,0.00
2017-12-11T02:15:27.747Z,0.00
2017-12-11T02:17:20.891Z,0.00
2017-12-11T02:18:20.899Z,0.00
2017-12-11T02:20:14.062Z,0.00
2017-12-11T02:21:14.064Z,0.00
2017-12-11T02:23:07.217Z,0.00
2017-12-11T02:24:07.219Z,0.00
2017-12-11T02:26:00.385Z,0.00
2017-12-11T02:27:00.385Z,0.00
2017-12-11T02:28:53.548Z,0.00
2017-12-11T02:29:53.544Z,0.00
2017-12-11T02:31:46.707Z,0.00
2017-12-11T02:32:46.703Z,0.00
2017-12-11T02:34:39.872Z,0.00
2017-12-11T02:35:39.862Z,0.00
2017-12-11T02:37:33.114Z,0.00
2017-12-11T02:38:33.024Z,0.00
2017-12-11T02:40:26.186Z,0.00
2017-12-11T02:41:26.187Z,0.00
2017-12-11T02:43:19.341Z,0.00
2017-12-11T02:44:19.344Z,0.00
2017-12-11T02:46:12.522Z,0.00
2017-12-11T02:47:12.511Z,0.00
2017-12-11T02:49:05.670Z,0.00
2017-12-11T02:50:05.670Z,0.00
2017-12-11T02:51:58.820Z,0.00
2017-12-11T02:52:58.826Z,0.00
2017-12-11T02:54:51.978Z,0.00
2017-12-11T02:55:51.987Z,0.00
2017-12-11T02:57:45.132Z,0.00
2017-12-11T02:58:45.148Z,0.00
2017-12-11T03:00:38.311Z,0.00
2017-12-11T03:01:38.310Z,0.00
2017-12-11T03:03:31.454Z,0.00
2017-12-11T03:04:31.471Z,0.00
2017-12-11T03:06:24.640Z,0.00
2017-12-11T03:07:24.678Z,0.00
2017-12-11T03:09:17.775Z,0.00
2017-12-11T03:10:17.789Z,0.00
2017-12-11T03:12:10.954Z,0.00
2017-12-11T03:13:10.960Z,0.00
2017-12-11T03:15:04.111Z,0.00
2017-12-11T03:16:04.135Z,0.00
2017-12-11T03:17:57.263Z,0.00
2017-12-11T03:18:57.285Z,0.00
2017-12-11T03:20:50.444Z,0.00
2017-12-11T03:21:50.455Z,0.00
2017-12-11T03:23:43.577Z,0.00
2017-12-11T03:24:43.592Z,0.00
2017-12-11T03:26:36.759Z,0.00
2017-12-11T03:27:36.754Z,0.00
2017-12-11T03:29:29.902Z,0.00
2017-12-11T03:30:29.917Z,0.00
2017-12-11T03:32:23.087Z,0.00
2017-12-11T03:33:23.076Z,0.00
2017-12-11T03:35:16.261Z,0.00
2017-12-11T03:36:16.256Z,0.00
2017-12-11T03:38:09.443Z,0.00
2017-12-11T03:39:09.507Z,0.00
2017-12-11T03:41:02.608Z,0.00
2017-12-11T03:42:02.610Z,0.00
2017-12-11T03:43:55.755Z,0.00
2017-12-11T03:44:55.771Z,0.00
2017-12-11T03:46:48.956Z,0.00
2017-12-11T03:47:48.934Z,0.00
2017-12-11T03:49:59.386Z,0.00
2017-12-11T03:50:59.411Z,0.00
2017-12-11T03:52:52.627Z,0.00
2017-12-11T03:53:52.576Z,0.00
2017-12-11T03:55:45.754Z,0.00
2017-12-11T03:56:45.731Z,0.00
2017-12-11T03:58:38.883Z,0.00
2017-12-11T03:59:38.887Z,0.00
2017-12-11T04:01:32.042Z,0.00
2017-12-11T04:02:32.040Z,0.00
2017-12-11T04:04:25.193Z,0.00
2017-12-11T04:05:25.195Z,0.00
2017-12-11T04:07:18.370Z,0.00
2017-12-11T04:08:18.366Z,0.00
2017-12-11T04:10:11.496Z,0.00
2017-12-11T04:11:11.516Z,0.00
2017-12-11T04:13:04.685Z,0.00
2017-12-11T04:14:04.690Z,0.00
2017-12-11T04:15:57.839Z,0.00
2017-12-11T04:16:57.843Z,0.00
2017-12-11T04:18:50.991Z,0.00
2017-12-11T04:19:50.998Z,0.00
2017-12-11T04:21:44.190Z,0.00
2017-12-11T04:22:44.176Z,0.00
2017-12-11T04:24:37.418Z,0.00
2017-12-11T04:25:37.336Z,0.00
2017-12-11T04:27:30.481Z,0.00
2017-12-11T04:28:30.484Z,0.00
2017-12-11T04:34:19.313Z,0.00
2017-12-11T04:35:19.330Z,0.00
2017-12-11T04:37:12.514Z,0.00
2017-12-11T04:38:12.465Z,0.00
2017-12-11T04:40:05.617Z,0.00
2017-12-11T04:41:05.627Z,0.00
2017-12-11T04:42:58.796Z,0.00
2017-12-11T04:43:58.789Z,0.00
2017-12-11T04:45:51.939Z,0.00
2017-12-11T04:46:51.947Z,0.00
2017-12-11T04:48:45.111Z,0.00
2017-12-11T04:49:45.104Z,0.00
2017-12-11T04:51:38.287Z,0.00
2017-12-11T04:52:38.270Z,0.00
2017-12-11T04:54:31.425Z,0.00
2017-12-11T04:55:31.421Z,0.00
2017-12-11T04:57:24.577Z,0.00
2017-12-11T04:58:24.585Z,0.00
2017-12-11T05:00:17.738Z,0.00
2017-12-11T05:01:17.746Z,0.00
2017-12-11T05:03:11.022Z,0.00
2017-12-11T05:04:10.926Z,0.00
2017-12-11T05:06:04.069Z,0.00
2017-12-11T05:07:04.079Z,0.00
2017-12-11T05:08:57.237Z,0.00
2017-12-11T05:09:57.220Z,0.00
2017-12-11T05:11:50.401Z,0.00
2017-12-11T05:12:50.390Z,0.00
2017-12-11T05:14:43.544Z,0.00
2017-12-11T05:15:43.550Z,0.00
2017-12-11T05:17:36.708Z,0.00
2017-12-11T05:18:36.714Z,0.00
2017-12-11T05:20:29.864Z,0.00
2017-12-11T05:21:29.869Z,0.00
2017-12-11T05:23:23.042Z,0.00
2017-12-11T05:24:23.033Z,0.00
2017-12-11T05:26:16.181Z,0.00
2017-12-11T05:27:16.194Z,0.00
2017-12-11T05:29:09.358Z,0.00
2017-12-11T05:30:09.365Z,0.00
2017-12-11T05:32:02.501Z,0.00
2017-12-11T05:33:02.514Z,0.00
2017-12-11T05:34:55.648Z,0.00
2017-12-11T05:35:55.672Z,0.00
2017-12-11T05:37:48.821Z,0.00
2017-12-11T05:38:48.833Z,0.00
2017-12-11T05:40:41.960Z,0.00
2017-12-11T05:41:41.962Z,0.00
2017-12-11T05:43:35.142Z,0.00
2017-12-11T05:44:35.136Z,0.00
2017-12-11T05:46:28.296Z,0.00
2017-12-11T05:47:28.304Z,0.00
2017-12-11T05:49:21.460Z,0.00
2017-12-11T05:50:21.450Z,0.00
2017-12-11T05:52:14.622Z,0.00
2017-12-11T05:53:14.608Z,0.00
2017-12-11T05:55:07.742Z,0.00
2017-12-11T05:56:07.756Z,0.00
2017-12-11T05:58:00.948Z,0.00
2017-12-11T05:59:00.955Z,0.00
2017-12-11T06:00:54.165Z,0.00
2017-12-11T06:01:54.171Z,0.00
2017-12-11T06:03:47.320Z,0.00
2017-12-11T06:04:47.365Z,0.00
2017-12-11T06:06:40.464Z,0.00
2017-12-11T06:07:40.480Z,0.00
2017-12-11T06:09:33.640Z,0.00
2017-12-11T06:10:33.645Z,0.00
2017-12-11T06:12:26.792Z,0.00
2017-12-11T06:13:26.795Z,0.00
2017-12-11T06:15:19.955Z,0.00
2017-12-11T06:16:19.958Z,0.00
2017-12-11T06:18:13.126Z,0.00
2017-12-11T06:19:13.153Z,0.00
2017-12-11T06:21:06.271Z,0.00
2017-12-11T06:22:06.285Z,0.00
2017-12-11T06:23:59.461Z,0.00
2017-12-11T06:24:59.458Z,0.00
2017-12-11T06:26:52.931Z,0.00
2017-12-11T06:27:52.602Z,0.00
2017-12-11T06:29:45.781Z,0.00
2017-12-11T06:30:45.775Z,0.00
2017-12-11T06:32:39.047Z,0.00
2017-12-11T06:33:38.934Z,0.00
2017-12-11T06:35:32.072Z,0.00
2017-12-11T06:36:32.082Z,0.00
2017-12-11T06:38:25.344Z,4.00
2017-12-11T06:39:25.265Z,4.00
2017-12-11T06:41:18.421Z,4.00
2017-12-11T06:42:18.426Z,0.00
2017-12-11T06:44:11.595Z,4.00
2017-12-11T06:45:11.577Z,4.00
2017-12-11T06:47:04.709Z,4.00
2017-12-11T06:48:04.723Z,4.00
2017-12-11T06:49:57.879Z,4.00
2017-12-11T06:50:57.875Z,8.00
2017-12-11T06:52:51.042Z,8.00
2017-12-11T06:53:51.069Z,8.00
2017-12-11T06:55:44.216Z,12.00
2017-12-11T06:56:44.219Z,16.00
2017-12-11T06:58:37.384Z,24.00
2017-12-11T06:59:37.381Z,28.00
2017-12-11T07:01:30.526Z,28.00
2017-12-11T07:02:30.539Z,36.00
2017-12-11T07:04:23.703Z,40.00
2017-12-11T07:05:23.704Z,44.00
2017-12-11T07:07:16.848Z,52.00
2017-12-11T07:08:16.963Z,56.00
2017-12-11T07:10:10.019Z,64.00
2017-12-11T07:11:10.025Z,68.00
2017-12-11T07:13:03.160Z,80.00
2017-12-11T07:14:03.184Z,84.00
2017-12-11T07:15:56.336Z,96.00
2017-12-11T07:16:56.334Z,100.00
2017-12-11T07:18:49.476Z,112.00
2017-12-11T07:19:49.494Z,120.00
2017-12-11T07:21:42.645Z,132.00
2017-12-11T07:22:42.652Z,140.00
2017-12-11T07:24:35.821Z,152.00
2017-12-11T07:25:35.825Z,152.00
2017-12-11T07:27:28.951Z,168.00
2017-12-11T07:28:28.970Z,176.00
2017-12-11T07:30:22.117Z,188.00
2017-12-11T07:31:22.120Z,188.00
2017-12-11T07:33:15.264Z,192.00
2017-12-11T07:34:15.275Z,200.00
2017-12-11T07:36:08.487Z,224.00
2017-12-11T07:37:08.435Z,236.00
2017-12-11T07:39:13.296Z,256.00
2017-12-11T07:40:13.305Z,256.00
2017-12-11T07:42:06.462Z,288.00
2017-12-11T07:43:06.464Z,312.00
2017-12-11T07:44:59.614Z,340.00
2017-12-11T07:45:59.611Z,360.00
2017-12-11T07:47:52.763Z,388.00
2017-12-11T07:48:52.768Z,392.00
2017-12-11T07:50:45.933Z,440.00
2017-12-11T07:51:45.932Z,460.00
2017-12-11T07:53:39.087Z,488.00
2017-12-11T07:54:39.120Z,504.00
2017-12-11T07:56:32.243Z,552.00
2017-12-11T07:57:32.244Z,624.00
2017-12-11T07:59:25.402Z,652.00
2017-12-11T08:00:25.399Z,620.00
2017-12-11T08:02:18.554Z,572.00
2017-12-11T08:03:18.566Z,584.00
2017-12-11T08:05:11.730Z,736.00
2017-12-11T08:06:11.746Z,744.00
2017-12-11T08:08:04.868Z,796.00
2017-12-11T08:09:04.878Z,828.00
2017-12-11T08:10:58.045Z,908.00
2017-12-11T08:11:58.036Z,936.00
2017-12-11T08:13:51.274Z,868.00
2017-12-11T08:14:51.226Z,816.00
2017-12-11T08:16:44.384Z,812.00
2017-12-11T08:17:44.389Z,824.00
2017-12-11T08:19:37.546Z,824.00
2017-12-11T08:20:37.556Z,840.00
2017-12-11T08:22:30.708Z,828.00
2017-12-11T08:23:30.701Z,832.00
2017-12-11T08:25:23.862Z,888.00
2017-12-11T08:26:23.857Z,896.00
2017-12-11T08:28:16.997Z,924.00
2017-12-11T08:29:17.016Z,960.00
2017-12-11T08:31:10.185Z,1000.00
2017-12-11T08:32:10.229Z,964.00
2017-12-11T08:34:03.329Z,920.00
2017-12-11T08:35:03.342Z,888.00
2017-12-11T08:36:56.535Z,924.00
2017-12-11T08:37:56.528Z,924.00
2017-12-11T08:39:49.744Z,904.00
2017-12-11T08:40:49.702Z,932.00
2017-12-11T08:42:42.818Z,1020.00
2017-12-11T08:43:42.884Z,1076.00
2017-12-11T08:45:35.980Z,1208.00
2017-12-11T08:46:35.984Z,1264.00
2017-12-11T08:48:29.129Z,1256.00
2017-12-11T08:49:29.164Z,1236.00
2017-12-11T08:51:22.311Z,1184.00
2017-12-11T08:52:22.305Z,1140.00
2017-12-11T08:54:15.470Z,1112.00
2017-12-11T08:55:15.475Z,1092.00
2017-12-11T08:57:08.635Z,988.00
2017-12-11T08:58:08.643Z,964.00
2017-12-11T09:00:01.789Z,944.00
2017-12-11T09:01:01.792Z,940.00
2017-12-11T09:02:54.956Z,1016.00
2017-12-11T09:03:54.949Z,1016.00
2017-12-11T09:05:48.116Z,964.00
2017-12-11T09:06:48.120Z,956.00
2017-12-11T09:08:41.247Z,1008.00
2017-12-11T09:09:41.315Z,1056.00
2017-12-11T09:11:34.430Z,1196.00
2017-12-11T09:12:34.442Z,1220.00
2017-12-11T09:14:27.594Z,1220.00
2017-12-11T09:15:27.599Z,1232.00
2017-12-11T09:17:20.792Z,1112.00
2017-12-11T09:18:20.777Z,1068.00
2017-12-11T09:20:13.939Z,960.00
2017-12-11T09:21:13.951Z,1012.00
2017-12-11T09:23:07.140Z,1020.00
2017-12-11T09:24:07.107Z,1028.00
2017-12-11T09:26:00.290Z,1052.00
2017-12-11T09:27:00.267Z,1112.00
2017-12-11T09:28:53.424Z,1204.00
2017-12-11T09:29:53.431Z,1256.00
2017-12-11T09:31:46.616Z,1252.00
2017-12-11T09:32:46.588Z,1128.00
2017-12-11T09:34:39.740Z,972.00
2017-12-11T09:35:39.743Z,888.00
2017-12-11T09:37:47.249Z,860.00
2017-12-11T09:38:47.286Z,856.00
2017-12-11T09:40:40.417Z,912.00
2017-12-11T09:41:40.430Z,956.00
2017-12-11T09:43:33.569Z,972.00
2017-12-11T09:44:33.600Z,976.00
2017-12-11T09:46:26.725Z,940.00
2017-12-11T09:47:26.728Z,912.00
2017-12-11T09:49:19.879Z,868.00
2017-12-11T09:50:19.882Z,880.00
2017-12-11T09:52:13.047Z,820.00
2017-12-11T09:53:13.041Z,788.00
2017-12-11T09:55:06.199Z,792.00
2017-12-11T09:56:06.216Z,800.00
2017-12-11T09:57:59.363Z,800.00
2017-12-11T09:58:59.364Z,792.00
2017-12-11T10:00:52.513Z,836.00
2017-12-11T10:01:52.526Z,872.00
2017-12-11T10:03:45.684Z,864.00
2017-12-11T10:04:45.692Z,892.00
2017-12-11T10:06:38.877Z,964.00
2017-12-11T10:07:38.846Z,992.00
2017-12-11T10:09:32.032Z,1028.00
2017-12-11T10:10:32.013Z,1044.00
2017-12-11T10:12:25.172Z,1064.00
2017-12-11T10:13:25.163Z,1056.00
2017-12-11T10:15:18.647Z,1004.00
2017-12-11T10:16:18.328Z,988.00
2017-12-11T10:18:11.485Z,908.00
2017-12-11T10:19:11.487Z,868.00
2017-12-11T10:21:04.636Z,852.00
2017-12-11T10:22:04.649Z,828.00
2017-12-11T10:23:57.801Z,800.00
2017-12-11T10:24:57.809Z,792.00
2017-12-11T10:26:50.961Z,752.00
2017-12-11T10:27:50.974Z,736.00
2017-12-11T10:29:44.116Z,740.00
2017-12-11T10:30:44.123Z,752.00
2017-12-11T10:32:37.293Z,712.00
2017-12-11T10:33:37.286Z,696.00
2017-12-11T10:35:30.440Z,720.00
2017-12-11T10:36:30.451Z,700.00
2017-12-11T10:38:23.633Z,608.00
2017-12-11T10:39:23.613Z,592.00
2017-12-11T10:41:16.764Z,584.00
2017-12-11T10:42:16.776Z,568.00
2017-12-11T10:44:09.942Z,548.00
2017-12-11T10:45:09.931Z,544.00
2017-12-11T10:47:03.089Z,592.00
2017-12-11T10:48:03.096Z,596.00
2017-12-11T10:49:56.247Z,544.00
2017-12-11T10:50:56.259Z,532.00
2017-12-11T10:52:49.410Z,508.00
2017-12-11T10:53:49.421Z,500.00
2017-12-11T10:55:42.664Z,528.00
2017-12-11T10:56:42.584Z,556.00
2017-12-11T10:58:35.747Z,584.00
2017-12-11T10:59:35.739Z,588.00
2017-12-11T11:01:28.887Z,588.00
2017-12-11T11:02:28.899Z,592.00
2017-12-11T11:04:33.762Z,572.00
2017-12-11T11:05:33.749Z,552.00
2017-12-11T11:07:26.940Z,544.00
2017-12-11T11:08:26.898Z,548.00
2017-12-11T11:10:20.050Z,564.00
2017-12-11T11:11:20.070Z,576.00
2017-12-11T11:13:13.408Z,592.00
2017-12-11T11:14:13.395Z,604.00
2017-12-11T11:16:06.536Z,608.00
2017-12-11T11:17:06.547Z,596.00
2017-12-11T11:18:59.725Z,564.00
2017-12-11T11:19:59.715Z,544.00
2017-12-11T11:21:52.858Z,504.00
2017-12-11T11:22:52.879Z,492.00
2017-12-11T11:24:46.044Z,484.00
2017-12-11T11:25:46.040Z,476.00
2017-12-11T11:27:39.216Z,456.00
2017-12-11T11:28:39.226Z,452.00
2017-12-11T11:30:32.363Z,440.00
2017-12-11T11:31:32.373Z,440.00
2017-12-11T11:33:25.558Z,428.00
2017-12-11T11:34:25.545Z,412.00
2017-12-11T11:36:18.675Z,404.00
2017-12-11T11:37:18.693Z,404.00
2017-12-11T11:39:11.858Z,404.00
2017-12-11T11:40:11.839Z,408.00
2017-12-11T11:42:04.983Z,420.00
2017-12-11T11:43:04.996Z,412.00
2017-12-11T11:44:58.170Z,392.00
2017-12-11T11:45:58.160Z,380.00
2017-12-11T11:47:51.320Z,368.00
2017-12-11T11:48:51.314Z,380.00
2017-12-11T11:50:44.486Z,388.00
2017-12-11T11:51:44.499Z,396.00
2017-12-11T11:53:37.651Z,384.00
2017-12-11T11:54:37.657Z,376.00
2017-12-11T11:56:30.811Z,380.00
2017-12-11T11:57:30.823Z,388.00
2017-12-11T11:59:23.979Z,416.00
2017-12-11T12:00:23.976Z,432.00
2017-12-11T12:02:17.250Z,420.00
2017-12-11T12:03:17.140Z,412.00
2017-12-11T12:05:10.293Z,400.00
2017-12-11T12:06:10.295Z,404.00
2017-12-11T12:08:03.520Z,424.00
2017-12-11T12:09:03.466Z,428.00
2017-12-11T12:10:56.673Z,424.00
2017-12-11T12:11:56.617Z,428.00
2017-12-11T12:13:49.780Z,420.00
2017-12-11T12:14:49.777Z,416.00
2017-12-11T12:16:42.932Z,428.00
2017-12-11T12:17:42.939Z,440.00
2017-12-11T12:19:36.101Z,452.00
2017-12-11T12:20:36.093Z,452.00
2017-12-11T12:22:29.248Z,448.00
2017-12-11T12:23:29.269Z,448.00
2017-12-11T12:25:22.418Z,424.00
2017-12-11T12:26:22.427Z,412.00
2017-12-11T12:28:15.572Z,392.00
2017-12-11T12:29:15.572Z,388.00
2017-12-11T12:31:09.069Z,380.00
2017-12-11T12:32:08.777Z,380.00
2017-12-11T12:34:01.921Z,396.00
2017-12-11T12:35:01.918Z,404.00
2017-12-11T12:36:55.064Z,392.00
2017-12-11T12:37:55.080Z,392.00
2017-12-11T12:39:48.227Z,396.00
2017-12-11T12:40:48.236Z,392.00
2017-12-11T12:42:41.371Z,372.00
2017-12-11T12:43:41.387Z,360.00
2017-12-11T12:45:34.536Z,332.00
2017-12-11T12:46:34.540Z,324.00
2017-12-11T12:48:27.698Z,324.00
2017-12-11T12:49:27.708Z,332.00
2017-12-11T12:51:20.852Z,340.00
2017-12-11T12:52:20.860Z,356.00
2017-12-11T12:54:14.013Z,376.00
2017-12-11T12:55:14.002Z,380.00
2017-12-11T12:57:07.153Z,380.00
2017-12-11T12:58:07.172Z,376.00
2017-12-11T13:00:00.343Z,368.00
2017-12-11T13:01:00.349Z,364.00
2017-12-11T13:02:53.493Z,356.00
2017-12-11T13:03:53.501Z,352.00
2017-12-11T13:05:46.671Z,336.00
2017-12-11T13:06:46.644Z,340.00
2017-12-11T13:08:39.842Z,340.00
2017-12-11T13:09:39.804Z,340.00
2017-12-11T13:11:32.983Z,344.00
2017-12-11T13:12:32.981Z,344.00
2017-12-11T13:14:26.138Z,328.00
2017-12-11T13:15:26.120Z,328.00
2017-12-11T13:17:19.277Z,332.00
2017-12-11T13:18:19.294Z,332.00
2017-12-11T13:20:12.472Z,348.00
2017-12-11T13:21:12.447Z,356.00
2017-12-11T13:23:05.611Z,368.00
2017-12-11T13:24:05.615Z,384.00
2017-12-11T13:25:58.776Z,408.00
2017-12-11T13:26:58.782Z,412.00
2017-12-11T13:28:51.917Z,408.00
2017-12-11T13:29:51.940Z,404.00
2017-12-11T13:31:45.825Z,396.00
2017-12-11T13:32:45.111Z,404.00
2017-12-11T13:34:38.339Z,408.00
2017-12-11T13:35:38.351Z,436.00
2017-12-11T13:37:31.564Z,440.00
2017-12-11T13:38:31.528Z,424.00
2017-12-11T13:40:24.701Z,380.00
2017-12-11T13:41:24.689Z,360.00
2017-12-11T13:43:17.841Z,368.00
2017-12-11T13:44:17.853Z,372.00
2017-12-11T13:46:11.000Z,372.00
2017-12-11T13:47:11.000Z,368.00
2017-12-11T13:49:04.135Z,392.00
2017-12-11T13:50:04.154Z,404.00
2017-12-11T13:51:57.330Z,384.00
2017-12-11T13:52:57.325Z,368.00
2017-12-11T13:54:50.447Z,332.00
2017-12-11T13:55:50.459Z,308.00
2017-12-11T13:57:43.643Z,256.00
2017-12-11T13:58:43.629Z,228.00
2017-12-11T14:00:36.778Z,200.00
2017-12-11T14:01:36.794Z,184.00
2017-12-11T14:03:29.978Z,160.00
2017-12-11T14:04:29.962Z,160.00
2017-12-11T14:06:23.110Z,156.00
2017-12-11T14:07:23.138Z,164.00
2017-12-11T14:09:16.278Z,168.00
2017-12-11T14:10:16.287Z,168.00
2017-12-11T14:12:09.431Z,152.00
2017-12-11T14:13:09.450Z,148.00
2017-12-11T14:15:02.616Z,144.00
2017-12-11T14:16:02.613Z,136.00
2017-12-11T14:17:55.759Z,128.00
2017-12-11T14:18:55.765Z,120.00
2017-12-11T14:20:48.938Z,100.00
2017-12-11T14:21:48.936Z,96.00
2017-12-11T14:23:42.084Z,76.00
2017-12-11T14:24:42.100Z,68.00
2017-12-11T14:26:35.261Z,56.00
2017-12-11T14:27:35.254Z,48.00
2017-12-11T14:29:28.420Z,48.00
2017-12-11T14:30:28.426Z,44.00
2017-12-11T14:32:21.579Z,36.00
2017-12-11T14:33:21.582Z,32.00
2017-12-11T14:35:14.720Z,28.00
2017-12-11T14:36:14.732Z,20.00
2017-12-11T14:38:07.919Z,20.00
2017-12-11T14:39:07.898Z,16.00
2017-12-11T14:41:01.043Z,16.00
2017-12-11T14:42:01.056Z,16.00
2017-12-11T14:43:54.209Z,12.00
2017-12-11T14:44:54.223Z,12.00
2017-12-11T14:46:47.361Z,8.00
2017-12-11T14:47:47.372Z,8.00
2017-12-11T14:49:40.538Z,4.00
2017-12-11T14:50:40.542Z,4.00
2017-12-11T14:52:33.677Z,4.00
2017-12-11T14:53:33.694Z,4.00
2017-12-11T14:55:26.862Z,4.00
2017-12-11T14:56:26.855Z,4.00
2017-12-11T14:58:20.004Z,4.00
2017-12-11T14:59:20.019Z,4.00
2017-12-11T15:01:13.181Z,4.00
2017-12-11T15:02:13.187Z,0.00
2017-12-11T15:04:06.307Z,0.00
2017-12-11T15:05:06.322Z,4.00
2017-12-11T15:06:59.604Z,4.00
2017-12-11T15:07:59.483Z,4.00
2017-12-11T15:09:52.640Z,0.00
2017-12-11T15:10:52.652Z,0.00
2017-12-11T15:12:45.825Z,0.00
2017-12-11T15:13:45.831Z,0.00
2017-12-11T15:15:38.953Z,0.00
2017-12-11T15:16:38.976Z,0.00
2017-12-11T15:18:32.144Z,0.00
2017-12-11T15:19:32.209Z,0.00
2017-12-11T15:21:25.286Z,0.00
2017-12-11T15:22:25.315Z,0.00
2017-12-11T15:24:18.447Z,0.00
2017-12-11T15:25:18.454Z,0.00
2017-12-11T15:27:11.616Z,0.00
2017-12-11T15:28:11.621Z,0.00
2017-12-11T15:30:22.120Z,0.00
2017-12-11T15:31:22.129Z,0.00
2017-12-11T15:33:15.309Z,0.00
2017-12-11T15:34:15.311Z,0.00
2017-12-11T15:36:08.486Z,0.00
2017-12-11T15:37:08.466Z,0.00
2017-12-11T15:39:01.621Z,0.00
2017-12-11T15:40:01.608Z,0.00
2017-12-11T15:41:54.788Z,0.00
2017-12-11T15:42:54.773Z,0.00
2017-12-11T15:44:47.926Z,0.00
2017-12-11T15:45:47.932Z,0.00
2017-12-11T15:47:41.081Z,0.00
2017-12-11T15:48:41.130Z,0.00
2017-12-11T15:50:34.243Z,0.00
2017-12-11T15:51:34.258Z,0.00
2017-12-11T15:53:27.750Z,0.00
2017-12-11T15:54:27.453Z,0.00
2017-12-11T15:56:20.621Z,0.00
2017-12-11T15:57:20.627Z,0.00
2017-12-11T15:59:13.787Z,0.00
2017-12-11T16:00:13.794Z,0.00
2017-12-11T16:02:06.947Z,0.00
2017-12-11T16:03:06.944Z,0.00
2017-12-11T16:05:00.087Z,0.00
2017-12-11T16:06:00.116Z,0.00
2017-12-11T16:07:53.298Z,0.00
2017-12-11T16:08:53.301Z,0.00
2017-12-11T16:10:46.487Z,0.00
2017-12-11T16:11:46.492Z,0.00
2017-12-11T16:13:39.715Z,0.00
2017-12-11T16:14:39.692Z,0.00
2017-12-11T16:16:32.951Z,0.00
2017-12-11T16:17:32.885Z,0.00
2017-12-11T16:19:26.115Z,0.00
2017-12-11T16:20:26.154Z,0.00
2017-12-11T16:22:19.284Z,0.00
2017-12-11T16:23:19.276Z,0.00
2017-12-11T16:25:12.427Z,0.00
2017-12-11T16:26:12.443Z,0.00
2017-12-11T16:28:05.584Z,0.00
2017-12-11T16:29:05.590Z,0.00
2017-12-11T16:30:58.754Z,0.00
2017-12-11T16:31:58.777Z,0.00
2017-12-11T16:33:51.945Z,0.00
2017-12-11T16:34:51.925Z,0.00
2017-12-11T16:36:45.809Z,0.00
2017-12-11T16:37:45.077Z,0.00
2017-12-11T16:39:38.233Z,0.00
2017-12-11T16:40:38.246Z,0.00
2017-12-11T16:42:31.405Z,0.00
2017-12-11T16:43:31.402Z,0.00
2017-12-11T16:45:24.548Z,0.00
2017-12-11T16:46:24.554Z,0.00
2017-12-11T16:48:17.721Z,0.00
2017-12-11T16:49:17.718Z,0.00
2017-12-11T16:51:10.877Z,0.00
2017-12-11T16:52:10.882Z,0.00
2017-12-11T16:54:04.042Z,0.00
2017-12-11T16:55:04.047Z,0.00
2017-12-11T16:56:57.205Z,0.00
2017-12-11T16:57:57.206Z,0.00
2017-12-11T16:59:50.349Z,0.00
2017-12-11T17:00:50.357Z,0.00
2017-12-11T17:02:43.516Z,0.00
2017-12-11T17:03:43.530Z,0.00
2017-12-11T17:05:36.722Z,0.00
2017-12-11T17:06:36.703Z,0.00
2017-12-11T17:08:29.856Z,0.00
2017-12-11T17:09:29.849Z,0.00
2017-12-11T17:11:22.998Z,0.00
2017-12-11T17:12:23.031Z,0.00
2017-12-11T17:14:16.172Z,0.00
2017-12-11T17:15:16.166Z,0.00
2017-12-11T17:17:09.323Z,0.00
2017-12-11T17:18:09.324Z,0.00
2017-12-11T17:20:02.483Z,0.00
2017-12-11T17:21:02.495Z,0.00
2017-12-11T17:22:55.636Z,0.00
2017-12-11T17:23:55.656Z,0.00
2017-12-11T17:25:48.864Z,0.00
2017-12-11T17:26:48.810Z,0.00
2017-12-11T17:28:41.962Z,0.00
2017-12-11T17:29:41.968Z,0.00
2017-12-11T17:31:35.194Z,0.00
2017-12-11T17:32:35.231Z,0.00
2017-12-11T17:34:28.392Z,0.00
2017-12-11T17:35:28.391Z,0.00
2017-12-11T17:37:21.525Z,0.00
2017-12-11T17:38:21.561Z,0.00
2017-12-11T17:40:14.732Z,0.00
2017-12-11T17:41:14.735Z,0.00
2017-12-11T17:43:07.925Z,0.00
2017-12-11T17:44:07.939Z,0.00
2017-12-11T17:46:01.124Z,0.00
2017-12-11T17:47:01.099Z,0.00
2017-12-11T17:48:54.269Z,0.00
2017-12-11T17:49:54.264Z,0.00
2017-12-11T17:52:04.758Z,0.00
2017-12-11T17:53:04.757Z,0.00
2017-12-11T17:54:57.930Z,0.00
2017-12-11T17:55:57.920Z,0.00
2017-12-11T17:57:51.066Z,0.00
2017-12-11T17:58:51.090Z,0.00
2017-12-11T18:00:44.238Z,0.00
2017-12-11T18:01:44.239Z,0.00
2017-12-11T18:03:37.388Z,0.00
2017-12-11T18:04:37.402Z,0.00
2017-12-11T18:06:30.600Z,0.00
2017-12-11T18:07:30.590Z,0.00
2017-12-11T18:09:23.737Z,0.00
2017-12-11T18:10:23.738Z,0.00
2017-12-11T18:12:31.209Z,0.00
2017-12-11T18:13:31.227Z,0.00
2017-12-11T18:15:24.402Z,0.00
2017-12-11T18:16:24.377Z,0.00
2017-12-11T18:18:17.561Z,0.00
2017-12-11T18:19:17.625Z,0.00
2017-12-11T18:21:10.739Z,0.00
2017-12-11T18:22:10.747Z,0.00
2017-12-11T18:24:03.869Z,0.00
2017-12-11T18:25:03.872Z,0.00
2017-12-11T18:26:57.033Z,0.00
2017-12-11T18:27:57.021Z,0.00
2017-12-11T18:29:50.213Z,0.00
2017-12-11T18:30:50.213Z,0.00
2017-12-11T18:32:43.369Z,0.00
2017-12-11T18:33:43.443Z,0.00
2017-12-11T18:35:36.562Z,0.00
2017-12-11T18:36:36.554Z,0.00
2017-12-11T18:38:29.704Z,0.00
2017-12-11T18:39:29.723Z,0.00
2017-12-11T18:41:22.961Z,0.00
2017-12-11T18:42:22.938Z,0.00
2017-12-11T18:44:16.085Z,0.00
2017-12-11T18:45:16.082Z,0.00
2017-12-11T18:47:09.578Z,0.00